Time;durP1;ratioP1;P1;durP2;ratioP2;P2;SDS_P1;SDS_P2;PMS_P1;PMS_P2;Temp;Humidity;BMP_temperature;BMP_pressure;BME280_temperature;BME280_humidity;BME280_pressure;Samples;Min_cycle;Max_cycle;Signal;HPM_P1;HPM_P2
2021/08/22 00:01:22;;;;;;;30.52;19.27;;;19.10;99.90;;;;;;5052556;28;20025;-57
2021/08/22 00:03:48;;;;;;;34.22;19.75;;;19.10;99.90;;;;;;5055207;28;20025;-59
2021/08/22 00:06:13;;;;;;;36.92;19.77;;;19.10;99.90;;;;;;5053925;28;20028;-60
2021/08/22 00:08:39;;;;;;;22.55;17.38;;;19.10;99.90;;;;;;5051746;28;20108;-59
2021/08/22 00:11:05;;;;;;;31.13;20.25;;;19.10;99.90;;;;;;5051380;28;20488;-60
2021/08/22 00:13:31;;;;;;;28.67;21.63;;;19.10;99.90;;;;;;5055665;28;20037;-59
2021/08/22 00:15:57;;;;;;;33.55;23.38;;;19.00;99.90;;;;;;5051784;28;20115;-60
2021/08/22 00:18:22;;;;;;;30.33;22.95;;;19.00;99.90;;;;;;5054922;28;20399;-60
2021/08/22 00:20:48;;;;;;;29.92;20.98;;;19.00;99.90;;;;;;5052600;28;20071;-61
2021/08/22 00:23:13;;;;;;;34.00;21.92;;;18.90;99.90;;;;;;5050544;28;20086;-60
2021/08/22 00:25:39;;;;;;;41.25;23.20;;;18.80;99.90;;;;;;5049494;28;20516;-59
2021/08/22 00:28:04;;;;;;;37.88;23.55;;;18.70;99.90;;;;;;5049386;28;20076;-59
2021/08/22 00:30:30;;;;;;;34.30;21.45;;;18.60;99.90;;;;;;5052083;28;20536;-60
2021/08/22 00:32:55;;;;;;;38.22;24.13;;;18.60;99.90;;;;;;5053743;28;20041;-60
2021/08/22 00:35:21;;;;;;;38.05;24.23;;;18.60;99.90;;;;;;5048507;28;20025;-59
2021/08/22 00:37:47;;;;;;;39.10;25.85;;;18.50;99.90;;;;;;5055007;28;20039;-59
2021/08/22 00:40:12;;;;;;;41.67;26.35;;;18.50;99.90;;;;;;5054996;28;20029;-59
2021/08/22 00:42:38;;;;;;;44.35;25.48;;;18.40;99.90;;;;;;5053836;28;20396;-59
2021/08/22 00:45:05;;;;;;;39.53;25.17;;;18.50;99.90;;;;;;5052529;28;20028;-59
2021/08/22 00:47:31;;;;;;;39.45;25.35;;;18.40;99.90;;;;;;5056183;28;20037;-59
2021/08/22 00:49:58;;;;;;;39.45;24.63;;;18.40;99.90;;;;;;5053667;28;20032;-60
2021/08/22 00:52:27;;;;;;;40.20;24.80;;;18.30;99.90;;;;;;5055525;28;20029;-60
2021/08/22 00:54:52;;;;;;;34.13;24.05;;;18.20;99.90;;;;;;5051327;28;20140;-56
2021/08/22 00:57:18;;;;;;;36.70;24.83;;;18.30;99.90;;;;;;5052477;28;20460;-59
2021/08/22 00:59:44;;;;;;;39.33;24.98;;;18.30;99.90;;;;;;5044631;28;20037;-59
2021/08/22 01:02:15;;;;;;;42.08;26.00;;;18.30;99.90;;;;;;5051095;28;20037;-59
2021/08/22 01:04:50;;;;;;;46.20;25.80;;;18.20;99.90;;;;;;5051329;28;20036;-59
2021/08/22 01:07:24;;;;;;;41.05;28.02;;;18.20;99.90;;;;;;5054092;28;20390;-59
2021/08/22 01:09:51;;;;;;;32.65;23.65;;;18.20;99.90;;;;;;5051669;28;20040;-58
2021/08/22 01:12:25;;;;;;;35.30;23.80;;;18.20;99.90;;;;;;5050238;28;20562;-58
2021/08/22 01:14:54;;;;;;;40.97;24.10;;;18.20;99.90;;;;;;5054097;28;20087;-58
2021/08/22 01:17:21;;;;;;;32.55;22.70;;;18.30;99.90;;;;;;5054407;28;20032;-59
2021/08/22 01:20:03;;;;;;;31.90;21.50;;;18.20;99.90;;;;;;5051149;28;20858;-58
2021/08/22 01:22:30;;;;;;;32.55;21.42;;;18.20;99.90;;;;;;5055761;28;20024;-59
2021/08/22 01:24:56;;;;;;;30.08;20.67;;;18.20;99.90;;;;;;5051497;28;20044;-59
2021/08/22 01:27:23;;;;;;;37.83;21.95;;;18.20;99.90;;;;;;5048727;28;20029;-60
2021/08/22 01:29:56;;;;;;;37.47;23.15;;;18.20;99.90;;;;;;5056493;28;20025;-59
2021/08/22 01:32:22;;;;;;;36.85;22.88;;;18.20;99.90;;;;;;5058150;28;20550;-58
2021/08/22 01:34:48;;;;;;;34.55;23.25;;;18.20;99.90;;;;;;5054917;28;20024;-59
2021/08/22 01:37:16;;;;;;;27.45;17.52;;;18.20;99.90;;;;;;5053045;28;20070;-59
2021/08/22 01:39:43;;;;;;;35.13;23.10;;;18.10;99.90;;;;;;5057168;28;20020;-56
2021/08/22 01:42:09;;;;;;;34.83;24.10;;;18.20;99.90;;;;;;5054321;28;20028;-59
2021/08/22 01:44:37;;;;;;;32.88;22.52;;;18.10;99.90;;;;;;5052658;28;20525;-59
2021/08/22 01:47:05;;;;;;;34.53;23.17;;;18.10;99.90;;;;;;5056435;28;20024;-59
2021/08/22 01:49:32;;;;;;;36.95;23.85;;;18.00;99.90;;;;;;5056921;28;20067;-57
2021/08/22 01:51:57;;;;;;;33.97;21.50;;;18.00;99.90;;;;;;5054043;28;20104;-58
2021/08/22 01:54:23;;;;;;;26.15;19.63;;;18.00;99.90;;;;;;5054521;28;20025;-59
2021/08/22 01:56:49;;;;;;;31.80;21.42;;;18.00;99.90;;;;;;5056657;28;20910;-60
2021/08/22 01:59:14;;;;;;;29.58;20.52;;;17.90;99.90;;;;;;5056981;28;20029;-59
2021/08/22 02:01:40;;;;;;;29.15;19.75;;;17.90;99.90;;;;;;5049643;28;20439;-60
2021/08/22 02:04:29;;;;;;;29.15;20.60;;;17.90;99.90;;;;;;5051837;28;20107;-56
2021/08/22 02:07:25;;;;;;;37.45;21.17;;;17.90;99.90;;;;;;5054468;28;20047;-60
2021/08/22 02:10:09;;;;;;;27.38;18.35;;;17.90;99.90;;;;;;5041322;28;20429;-60
2021/08/22 02:12:36;;;;;;;29.02;15.95;;;17.90;99.90;;;;;;5054268;28;20029;-59
2021/08/22 02:15:19;;;;;;;29.10;16.70;;;17.90;99.90;;;;;;5057968;28;20033;-61
2021/08/22 02:17:54;;;;;;;27.63;18.20;;;17.90;99.90;;;;;;5054434;28;20016;-60
2021/08/22 02:20:21;;;;;;;25.75;17.13;;;17.80;99.90;;;;;;5055214;28;20031;-58
2021/08/22 02:22:47;;;;;;;29.85;16.42;;;17.80;99.90;;;;;;5052045;28;20082;-59
2021/08/22 02:25:14;;;;;;;24.58;17.05;;;17.80;99.90;;;;;;5058232;28;20032;-59
2021/08/22 02:27:40;;;;;;;22.85;16.02;;;17.80;99.90;;;;;;5056092;28;20084;-59
2021/08/22 02:30:07;;;;;;;23.17;14.52;;;17.90;99.90;;;;;;5056442;28;20041;-56
2021/08/22 02:32:33;;;;;;;23.20;15.63;;;17.90;99.90;;;;;;5049109;28;20032;-59
2021/08/22 02:34:58;;;;;;;19.80;13.25;;;17.90;99.90;;;;;;5058535;28;20027;-59
2021/08/22 02:37:24;;;;;;;25.33;14.77;;;17.90;99.90;;;;;;5049385;28;20033;-58
2021/08/22 02:39:50;;;;;;;27.88;14.70;;;17.90;99.90;;;;;;5050674;28;20491;-56
2021/08/22 02:42:16;;;;;;;20.83;14.88;;;17.90;99.90;;;;;;5044228;23;20050;-63
2021/08/22 02:44:43;;;;;;;19.52;14.77;;;17.90;99.90;;;;;;5016068;28;20049;-62
2021/08/22 02:47:09;;;;;;;22.15;14.98;;;17.90;99.90;;;;;;5013752;28;20119;-58
2021/08/22 02:49:34;;;;;;;24.88;15.07;;;17.90;99.90;;;;;;4995354;28;20026;-62
2021/08/22 02:52:00;;;;;;;20.40;15.52;;;17.90;99.90;;;;;;5032739;28;20029;-62
2021/08/22 02:54:25;;;;;;;23.05;15.98;;;17.90;99.90;;;;;;5037918;28;20025;-62
2021/08/22 02:56:51;;;;;;;28.95;18.25;;;17.90;99.90;;;;;;5036551;28;20542;-61
2021/08/22 02:59:16;;;;;;;28.08;18.25;;;17.90;99.90;;;;;;5033576;28;20032;-61
2021/08/22 03:01:42;;;;;;;26.80;20.23;;;18.00;99.90;;;;;;5037359;28;20020;-62
2021/08/22 03:04:08;;;;;;;29.50;19.13;;;18.00;99.90;;;;;;5035127;28;20028;-62
2021/08/22 03:06:33;;;;;;;26.30;19.73;;;18.00;99.90;;;;;;5035776;28;20036;-62
2021/08/22 03:09:01;;;;;;;26.70;18.70;;;18.00;99.90;;;;;;5038346;28;20797;-62
2021/08/22 03:11:27;;;;;;;26.42;18.40;;;18.10;99.90;;;;;;5038800;28;20033;-63
2021/08/22 03:13:52;;;;;;;27.33;20.10;;;18.10;99.90;;;;;;5035131;28;20087;-61
2021/08/22 03:16:18;;;;;;;27.55;18.58;;;18.10;99.90;;;;;;5035868;28;20033;-61
2021/08/22 03:18:43;;;;;;;29.23;21.42;;;18.20;99.90;;;;;;5037069;28;20026;-62
2021/08/22 03:21:09;;;;;;;32.00;21.48;;;18.10;99.90;;;;;;5036688;28;20029;-62
2021/08/22 03:23:34;;;;;;;38.88;23.20;;;18.20;99.90;;;;;;5036053;28;20095;-62
2021/08/22 03:26:02;;;;;;;35.25;23.30;;;18.20;99.90;;;;;;5036843;28;20121;-62
2021/08/22 03:28:28;;;;;;;36.67;23.63;;;18.20;99.90;;;;;;5035123;28;20480;-62
2021/08/22 03:30:53;;;;;;;33.25;24.42;;;18.20;99.90;;;;;;5032679;28;20041;-62
2021/08/22 03:33:19;;;;;;;32.08;23.58;;;18.20;99.90;;;;;;5032407;28;20033;-62
2021/08/22 03:35:48;;;;;;;31.48;23.90;;;18.10;99.90;;;;;;5036090;28;20511;-60
2021/08/22 03:38:14;;;;;;;37.45;26.80;;;18.10;99.90;;;;;;5030173;28;20029;-59
2021/08/22 03:40:40;;;;;;;35.03;24.83;;;18.10;99.90;;;;;;5035404;28;20542;-60
2021/08/22 03:43:06;;;;;;;38.05;25.33;;;18.10;99.90;;;;;;5036590;28;20077;-59
2021/08/22 03:45:31;;;;;;;38.08;25.88;;;18.10;99.90;;;;;;5030225;28;20130;-58
2021/08/22 03:47:57;;;;;;;35.55;25.77;;;18.10;99.90;;;;;;5037431;28;20060;-59
2021/08/22 03:50:23;;;;;;;35.85;25.42;;;18.10;99.90;;;;;;5015767;28;20025;-59
2021/08/22 03:52:51;;;;;;;34.85;24.38;;;18.10;99.90;;;;;;5031926;28;20036;-60
2021/08/22 03:55:17;;;;;;;34.90;24.63;;;18.10;99.90;;;;;;5031427;28;20400;-59
2021/08/22 03:57:43;;;;;;;42.25;24.23;;;18.10;99.90;;;;;;5035648;28;20053;-60
2021/08/22 04:00:09;;;;;;;36.00;24.63;;;18.10;99.90;;;;;;5034651;28;21897;-62
2021/08/22 04:02:34;;;;;;;34.92;26.42;;;18.10;99.90;;;;;;5037060;28;20546;-61
2021/08/22 04:05:01;;;;;;;42.58;26.52;;;18.10;99.90;;;;;;5013856;28;20029;-62
2021/08/22 04:07:30;;;;;;;39.83;26.98;;;18.10;99.90;;;;;;5034948;28;20034;-61
2021/08/22 04:09:57;;;;;;;40.78;28.05;;;18.10;99.90;;;;;;5016849;28;20071;-61
2021/08/22 04:12:22;;;;;;;36.60;24.63;;;18.10;99.90;;;;;;5032109;28;20044;-62
2021/08/22 04:14:48;;;;;;;39.35;26.17;;;18.10;99.90;;;;;;5033770;28;20035;-62
2021/08/22 04:17:14;;;;;;;35.88;24.88;;;18.10;99.90;;;;;;5034607;28;20616;-62
2021/08/22 04:19:41;;;;;;;38.95;26.60;;;18.10;99.90;;;;;;5030557;28;20033;-62
2021/08/22 04:22:07;;;;;;;42.97;27.88;;;18.00;99.90;;;;;;5036169;28;20028;-62
2021/08/22 04:24:34;;;;;;;41.05;24.75;;;18.00;99.90;;;;;;5034895;28;20025;-62
2021/08/22 04:27:00;;;;;;;48.00;29.65;;;18.00;99.90;;;;;;5036365;28;20384;-60
2021/08/22 04:29:26;;;;;;;46.67;29.63;;;18.00;99.90;;;;;;5033962;28;20458;-59
2021/08/22 04:31:52;;;;;;;48.28;30.38;;;17.90;99.90;;;;;;5038152;28;20098;-60
2021/08/22 04:34:17;;;;;;;45.15;30.52;;;17.90;99.90;;;;;;5031633;28;20469;-58
2021/08/22 04:36:43;;;;;;;51.10;32.00;;;17.90;99.90;;;;;;5037527;28;20063;-59
2021/08/22 04:39:09;;;;;;;41.60;29.30;;;17.90;99.90;;;;;;5030573;28;20401;-60
2021/08/22 04:41:34;;;;;;;43.30;30.75;;;17.90;99.90;;;;;;5036001;28;20045;-59
2021/08/22 04:44:00;;;;;;;37.53;27.70;;;17.90;99.90;;;;;;5031490;28;20037;-59
2021/08/22 04:46:25;;;;;;;44.30;29.33;;;17.90;99.90;;;;;;5029383;28;20037;-59
2021/08/22 04:48:51;;;;;;;43.85;29.90;;;17.90;99.90;;;;;;5029113;28;20112;-59
2021/08/22 04:51:16;;;;;;;49.08;32.58;;;17.90;99.90;;;;;;5029125;28;20022;-63
2021/08/22 04:53:42;;;;;;;50.47;32.88;;;17.80;99.90;;;;;;5035503;28;20560;-60
2021/08/22 04:56:08;;;;;;;47.25;32.97;;;17.80;99.90;;;;;;5037742;28;20244;-57
2021/08/22 04:58:35;;;;;;;54.95;35.13;;;17.80;99.90;;;;;;5038504;28;20399;-58
2021/08/22 05:01:01;;;;;;;64.97;35.28;;;17.70;99.90;;;;;;5039735;28;20114;-60
2021/08/22 05:03:26;;;;;;;61.55;38.33;;;17.70;99.90;;;;;;5037282;28;20033;-59
2021/08/22 05:05:52;;;;;;;48.15;34.22;;;17.70;99.90;;;;;;5038231;28;20037;-59
2021/08/22 05:08:18;;;;;;;52.65;35.80;;;17.60;99.90;;;;;;5035011;28;20082;-58
2021/08/22 05:10:45;;;;;;;60.97;35.55;;;17.70;99.90;;;;;;5038974;28;20105;-59
2021/08/22 05:13:10;;;;;;;50.05;30.15;;;17.70;99.90;;;;;;5038505;28;20082;-59
2021/08/22 05:15:36;;;;;;;44.50;31.10;;;17.70;99.90;;;;;;5039961;28;20480;-60
2021/08/22 05:18:01;;;;;;;49.67;33.80;;;17.70;99.90;;;;;;5039626;28;20044;-60
2021/08/22 05:20:27;;;;;;;47.08;31.20;;;17.70;99.90;;;;;;5037518;28;21041;-57
2021/08/22 05:22:53;;;;;;;47.85;32.05;;;17.70;99.90;;;;;;5036260;28;20040;-57
2021/08/22 05:25:18;;;;;;;57.13;31.85;;;17.70;99.90;;;;;;5039291;28;20086;-59
2021/08/22 05:27:44;;;;;;;54.70;33.60;;;17.60;99.90;;;;;;5041345;28;20039;-62
2021/08/22 05:30:09;;;;;;;51.25;32.75;;;17.50;99.90;;;;;;5034514;28;20038;-61
2021/08/22 05:32:35;;;;;;;50.28;33.47;;;17.40;99.90;;;;;;5039410;28;20052;-61
2021/08/22 05:35:01;;;;;;;52.50;32.08;;;17.40;99.90;;;;;;5038388;28;20566;-62
2021/08/22 05:37:26;;;;;;;60.33;36.13;;;17.40;99.90;;;;;;5036030;28;20416;-62
2021/08/22 05:39:52;;;;;;;53.75;35.42;;;17.40;99.90;;;;;;5038546;28;20109;-59
2021/08/22 05:42:17;;;;;;;56.95;35.22;;;17.40;99.90;;;;;;5038245;28;20032;-57
2021/08/22 05:44:43;;;;;;;52.78;35.70;;;17.40;99.90;;;;;;5037248;28;20059;-59
2021/08/22 05:47:08;;;;;;;53.33;35.53;;;17.40;99.90;;;;;;5039014;28;20092;-61
2021/08/22 05:49:39;;;;;;;57.38;35.00;;;17.40;99.90;;;;;;5039862;28;20048;-62
2021/08/22 05:52:07;;;;;;;66.95;37.70;;;17.40;99.90;;;;;;5035067;28;20021;-62
2021/08/22 05:54:32;;;;;;;50.25;32.88;;;17.40;99.90;;;;;;5035045;28;20021;-61
2021/08/22 05:56:58;;;;;;;51.13;31.55;;;17.40;99.90;;;;;;5039423;28;20447;-62
2021/08/22 05:59:23;;;;;;;47.63;30.63;;;17.40;99.90;;;;;;5038431;28;20026;-62
2021/08/22 06:01:49;;;;;;;42.83;29.48;;;17.50;99.90;;;;;;5035757;28;20632;-62
2021/08/22 06:04:14;;;;;;;43.95;29.55;;;17.60;99.90;;;;;;5035716;28;20025;-59
2021/08/22 06:06:41;;;;;;;39.22;24.92;;;17.60;99.90;;;;;;5034387;28;20045;-57
2021/08/22 06:09:07;;;;;;;34.72;23.13;;;17.60;99.90;;;;;;5032140;28;20024;-59
2021/08/22 06:11:32;;;;;;;44.38;26.85;;;17.80;99.90;;;;;;5037216;28;20100;-59
2021/08/22 06:13:58;;;;;;;32.63;22.98;;;17.90;99.90;;;;;;5034946;28;20041;-59
2021/08/22 06:16:23;;;;;;;35.00;21.58;;;17.90;99.90;;;;;;5036697;28;20028;-60
2021/08/22 06:18:49;;;;;;;32.50;20.63;;;18.00;99.90;;;;;;5039942;28;20082;-60
2021/08/22 06:21:14;;;;;;;33.20;22.55;;;18.00;99.90;;;;;;5038267;28;20025;-60
2021/08/22 06:23:40;;;;;;;38.63;22.80;;;18.10;99.90;;;;;;5033784;28;20163;-62
2021/08/22 06:26:06;;;;;;;32.25;22.30;;;18.20;99.90;;;;;;5035000;28;20025;-61
2021/08/22 06:28:31;;;;;;;21.80;15.15;;;18.20;99.90;;;;;;5041729;28;20040;-60
2021/08/22 06:30:57;;;;;;;25.45;17.73;;;18.10;99.90;;;;;;5035921;28;20020;-60
2021/08/22 06:33:22;;;;;;;20.25;14.00;;;18.20;99.90;;;;;;5034848;28;20380;-60
2021/08/22 06:35:48;;;;;;;17.08;13.32;;;18.20;99.90;;;;;;5022775;28;20034;-60
2021/08/22 06:38:13;;;;;;;18.63;12.18;;;18.30;99.90;;;;;;5036469;28;20028;-60
2021/08/22 06:40:39;;;;;;;19.58;12.40;;;18.30;99.90;;;;;;5031697;28;20029;-60
2021/08/22 06:43:04;;;;;;;20.15;11.05;;;18.40;99.90;;;;;;5031441;28;20084;-59
2021/08/22 06:45:30;;;;;;;19.05;12.07;;;18.40;99.90;;;;;;5033738;28;20056;-59
2021/08/22 06:47:56;;;;;;;20.42;12.35;;;18.40;99.90;;;;;;5036132;28;20076;-60
2021/08/22 06:50:24;;;;;;;17.00;12.50;;;18.40;99.90;;;;;;5035217;28;20028;-59
2021/08/22 06:52:50;;;;;;;20.80;12.43;;;18.40;99.90;;;;;;5032443;28;20137;-58
2021/08/22 06:55:15;;;;;;;19.98;12.40;;;18.40;99.90;;;;;;5034954;28;20091;-59
2021/08/22 06:57:41;;;;;;;24.05;13.75;;;18.40;99.90;;;;;;5034884;28;20483;-60
2021/08/22 07:00:07;;;;;;;16.98;12.25;;;18.50;99.90;;;;;;5035310;28;20029;-60
2021/08/22 07:02:33;;;;;;;22.85;12.68;;;18.50;99.90;;;;;;5035839;28;20056;-60
2021/08/22 07:04:58;;;;;;;18.13;11.18;;;18.60;99.90;;;;;;5033953;28;20080;-58
2021/08/22 07:07:24;;;;;;;20.30;11.52;;;18.70;99.90;;;;;;5036977;28;20056;-59
2021/08/22 07:09:49;;;;;;;14.70;9.88;;;18.80;99.90;;;;;;5033588;28;20026;-59
2021/08/22 07:12:15;;;;;;;17.02;9.38;;;18.90;99.90;;;;;;5034654;28;20033;-60
2021/08/22 07:14:41;;;;;;;15.00;10.77;;;18.90;99.90;;;;;;5034644;28;20037;-59
2021/08/22 07:17:06;;;;;;;13.50;9.88;;;19.00;99.90;;;;;;5036015;28;20037;-60
2021/08/22 07:19:32;;;;;;;16.75;9.77;;;19.00;99.90;;;;;;5014543;28;20100;-59
2021/08/22 07:21:57;;;;;;;19.60;9.40;;;19.00;99.90;;;;;;5036315;28;20425;-58
2021/08/22 07:24:23;;;;;;;14.77;9.18;;;19.00;99.90;;;;;;5033489;28;20407;-59
2021/08/22 07:26:48;;;;;;;13.18;9.35;;;19.10;99.90;;;;;;5036328;28;20035;-59
2021/08/22 07:29:14;;;;;;;14.90;8.65;;;19.10;99.90;;;;;;5033687;28;20399;-59
2021/08/22 07:31:40;;;;;;;16.80;9.55;;;19.10;99.90;;;;;;5037921;28;20411;-59
2021/08/22 07:34:05;;;;;;;15.88;8.38;;;19.00;99.90;;;;;;5035731;28;20044;-58
2021/08/22 07:36:31;;;;;;;13.23;8.93;;;19.10;99.90;;;;;;5036552;28;20032;-58
2021/08/22 07:38:57;;;;;;;17.92;10.18;;;19.10;99.90;;;;;;5035812;28;20026;-59
2021/08/22 07:41:22;;;;;;;13.98;8.80;;;19.10;99.90;;;;;;5033646;28;20052;-60
2021/08/22 07:43:48;;;;;;;19.80;10.45;;;19.10;99.90;;;;;;5035729;28;20116;-61
2021/08/22 07:46:13;;;;;;;19.70;10.25;;;19.20;99.90;;;;;;5030553;28;20044;-62
2021/08/22 07:48:39;;;;;;;12.23;9.88;;;19.30;99.90;;;;;;5027136;28;20033;-59
2021/08/22 07:51:04;;;;;;;19.38;11.70;;;19.30;99.90;;;;;;5029630;28;20507;-62
2021/08/22 07:53:30;;;;;;;14.93;9.48;;;19.40;99.90;;;;;;5025626;28;20517;-60
2021/08/22 07:55:56;;;;;;;13.00;8.88;;;19.40;99.90;;;;;;5025241;28;20022;-61
2021/08/22 07:58:21;;;;;;;18.73;10.07;;;19.50;99.90;;;;;;5022523;28;20044;-60
2021/08/22 08:00:47;;;;;;;17.92;8.18;;;19.40;99.90;;;;;;5023577;28;20485;-62
2021/08/22 08:03:13;;;;;;;13.60;9.00;;;19.40;99.90;;;;;;5019936;28;20396;-58
2021/08/22 08:05:38;;;;;;;12.45;8.20;;;19.40;99.90;;;;;;5019507;28;20032;-61
2021/08/22 08:08:04;;;;;;;12.82;9.00;;;19.40;99.90;;;;;;5026458;28;20026;-62
2021/08/22 08:10:30;;;;;;;18.80;9.48;;;19.20;99.90;;;;;;5020415;28;20061;-61
2021/08/22 08:12:55;;;;;;;17.73;10.25;;;19.00;99.90;;;;;;5023018;28;20036;-60
2021/08/22 08:15:21;;;;;;;19.98;11.00;;;18.90;99.90;;;;;;5018509;28;20034;-61
2021/08/22 08:17:47;;;;;;;15.63;11.20;;;18.80;99.90;;;;;;5010725;28;20056;-61
2021/08/22 08:20:13;;;;;;;17.33;11.27;;;18.70;99.90;;;;;;5023682;28;20463;-60
2021/08/22 08:22:38;;;;;;;20.08;12.00;;;18.60;99.90;;;;;;5024091;28;20030;-62
2021/08/22 08:25:04;;;;;;;19.25;12.45;;;18.60;99.90;;;;;;5027557;28;20036;-61
2021/08/22 08:27:30;;;;;;;20.15;14.50;;;18.60;99.90;;;;;;5024666;28;20124;-60
2021/08/22 08:29:55;;;;;;;32.33;21.35;;;18.60;99.90;;;;;;5023892;28;20026;-60
2021/08/22 08:32:21;;;;;;;21.88;15.00;;;18.70;99.90;;;;;;5026806;28;20025;-59
2021/08/22 08:34:48;;;;;;;28.88;17.38;;;18.70;99.90;;;;;;5024798;28;20053;-61
2021/08/22 08:37:14;;;;;;;24.30;16.05;;;18.80;99.90;;;;;;5031530;28;20479;-62
2021/08/22 08:39:39;;;;;;;24.25;14.95;;;18.80;99.90;;;;;;5031012;28;20029;-61
2021/08/22 08:42:19;;;;;;;18.77;13.18;;;18.90;99.90;;;;;;5049715;22;20417;-63
2021/08/22 08:44:45;;;;;;;18.42;12.77;;;19.00;99.90;;;;;;5030867;28;20021;-63
2021/08/22 08:47:16;;;;;;;19.52;13.18;;;19.10;99.90;;;;;;5031908;28;20025;-61
2021/08/22 08:49:49;;;;;;;23.13;13.13;;;19.20;99.90;;;;;;5041364;28;20067;-61
2021/08/22 08:52:23;;;;;;;19.87;14.10;;;19.30;99.90;;;;;;5025427;28;20109;-62
2021/08/22 08:55:35;;;;;;;20.67;14.85;;;19.30;99.90;;;;;;5023205;28;20511;-61
2021/08/22 08:58:01;;;;;;;20.83;15.05;;;19.20;99.90;;;;;;5017867;28;20430;-62
2021/08/22 09:00:33;;;;;;;30.20;16.60;;;19.30;99.90;;;;;;5024905;28;20018;-62
2021/08/22 09:03:00;;;;;;;24.88;15.95;;;19.40;99.90;;;;;;5026379;28;20030;-62
2021/08/22 09:05:29;;;;;;;27.10;16.27;;;19.60;99.90;;;;;;5025280;28;20032;-63
2021/08/22 09:08:13;;;;;;;25.58;15.50;;;19.70;99.90;;;;;;5031787;28;20037;-64
2021/08/22 09:10:45;;;;;;;22.30;14.40;;;19.60;99.90;;;;;;5026656;28;20034;-63
2021/08/22 09:13:32;;;;;;;21.33;13.57;;;19.90;99.90;;;;;;5025565;28;20104;-62
2021/08/22 09:16:00;;;;;;;24.70;14.80;;;20.10;99.90;;;;;;5027006;28;20013;-60
2021/08/22 09:19:03;;;;;;;22.67;14.77;;;19.90;99.90;;;;;;5025849;28;20029;-61
2021/08/22 09:22:06;;;;;;;20.80;13.20;;;19.80;99.90;;;;;;5022250;28;20025;-61
2021/08/22 09:24:32;;;;;;;23.65;15.18;;;19.80;99.90;;;;;;5026270;28;20105;-61
2021/08/22 09:27:25;;;;;;;19.13;14.60;;;20.00;99.90;;;;;;5028709;28;20367;-61
2021/08/22 09:30:28;;;;;;;17.55;13.63;;;20.20;99.90;;;;;;5023029;28;20497;-61
2021/08/22 09:33:41;;;;;;;20.40;12.40;;;20.70;99.90;;;;;;4993017;28;20053;-62
2021/08/22 09:36:24;;;;;;;14.57;10.43;;;20.90;99.90;;;;;;5021012;28;20382;-60
2021/08/22 09:39:27;;;;;;;15.40;8.90;;;20.90;99.90;;;;;;5021036;28;20093;-61
2021/08/22 09:42:05;;;;;;;15.50;8.75;;;20.90;99.90;;;;;;5014088;28;20029;-62
2021/08/22 09:44:47;;;;;;;11.00;8.52;;;20.80;99.90;;;;;;5022563;28;20029;-64
2021/08/22 09:47:50;;;;;;;9.20;7.35;;;20.90;99.90;;;;;;5021689;28;20045;-63
2021/08/22 09:50:41;;;;;;;16.05;9.02;;;21.00;99.90;;;;;;5027154;28;20045;-61
2021/08/22 09:53:25;;;;;;;13.10;8.85;;;20.80;99.90;;;;;;5016426;28;20120;-60
2021/08/22 09:56:28;;;;;;;11.40;9.48;;;20.70;99.90;;;;;;5018703;28;20026;-62
2021/08/22 09:59:18;;;;;;;13.65;9.13;;;20.70;99.90;;;;;;5023794;28;20128;-61
2021/08/22 10:02:02;;;;;;;13.23;9.57;;;20.50;99.90;;;;;;5024856;28;20497;-61
2021/08/22 10:04:37;;;;;;;15.45;9.60;;;20.40;99.90;;;;;;5017897;28;20095;-62
2021/08/22 10:07:40;;;;;;;15.65;9.23;;;20.30;99.90;;;;;;5017821;28;20227;-62
2021/08/22 10:10:13;;;;;;;19.52;10.35;;;20.30;99.90;;;;;;4967652;28;20480;-63
2021/08/22 10:12:39;;;;;;;13.82;8.45;;;20.20;99.90;;;;;;5015457;28;20400;-63
2021/08/22 10:15:05;;;;;;;10.13;6.85;;;20.30;99.90;;;;;;5026340;28;20029;-61
2021/08/22 10:17:32;;;;;;;12.23;7.68;;;20.40;99.90;;;;;;5021596;28;20022;-61
2021/08/22 10:19:58;;;;;;;14.32;8.15;;;20.50;99.90;;;;;;5021160;28;20053;-61
2021/08/22 10:22:36;;;;;;;10.60;7.85;;;20.60;99.90;;;;;;5026156;28;20056;-61
2021/08/22 10:25:11;;;;;;;12.10;8.23;;;20.80;99.90;;;;;;5020353;28;20036;-61
2021/08/22 10:27:45;;;;;;;16.33;7.45;;;21.10;99.90;;;;;;5022428;28;20417;-61
2021/08/22 10:30:18;;;;;;;16.25;7.80;;;21.50;99.90;;;;;;5018356;28;20467;-62
2021/08/22 10:32:56;;;;;;;11.90;7.95;;;21.80;99.90;;;;;;5027984;28;20112;-61
2021/08/22 10:35:22;;;;;;;13.57;8.68;;;21.70;99.90;;;;;;5015691;28;20083;-60
2021/08/22 10:37:48;;;;;;;14.50;7.65;;;21.90;99.90;;;;;;5020956;28;20477;-60
2021/08/22 10:40:28;;;;;;;8.05;5.95;;;21.80;99.90;;;;;;5023494;28;20026;-61
2021/08/22 10:42:57;;;;;;;12.05;7.25;;;21.70;99.90;;;;;;5018176;28;20045;-63
2021/08/22 10:45:41;;;;;;;12.52;6.95;;;21.50;99.90;;;;;;5030116;28;20099;-60
2021/08/22 10:48:08;;;;;;;6.87;4.97;;;21.30;99.90;;;;;;5026691;28;20037;-62
2021/08/22 10:53:26;;;;;;;8.40;5.38;;;21.40;99.90;;;;;;5021538;28;20025;-60
2021/08/22 10:55:52;;;;;;;6.03;4.80;;;21.40;99.90;;;;;;5028773;28;20140;-61
2021/08/22 10:58:17;;;;;;;7.28;4.55;;;21.40;99.90;;;;;;5022687;28;20509;-61
2021/08/22 11:00:44;;;;;;;9.77;5.50;;;21.40;99.90;;;;;;5028322;28;20041;-60
2021/08/22 11:03:22;;;;;;;7.30;4.03;;;21.50;99.90;;;;;;5026629;28;20121;-61
2021/08/22 11:05:48;;;;;;;5.72;3.83;;;21.30;99.90;;;;;;5024532;28;20037;-61
2021/08/22 11:08:14;;;;;;;7.25;3.60;;;21.40;99.90;;;;;;5021443;28;20045;-61
2021/08/22 11:11:01;;;;;;;6.50;3.70;;;21.60;99.90;;;;;;5024163;28;20040;-60
2021/08/22 11:13:29;;;;;;;5.88;3.80;;;21.50;99.90;;;;;;5025982;28;20076;-61
2021/08/22 11:15:56;;;;;;;7.30;3.50;;;21.30;99.90;;;;;;5022636;28;20041;-61
2021/08/22 11:18:21;;;;;;;6.30;3.90;;;21.50;99.90;;;;;;5027315;28;20552;-61
2021/08/22 11:20:48;;;;;;;6.03;3.63;;;21.70;99.90;;;;;;5029280;28;20101;-60
2021/08/22 11:23:18;;;;;;;5.65;3.72;;;21.80;99.90;;;;;;5022828;28;20521;-60
2021/08/22 11:25:46;;;;;;;6.05;3.80;;;21.90;99.90;;;;;;5019248;28;20053;-59
2021/08/22 11:28:14;;;;;;;6.40;3.58;;;22.10;99.90;;;;;;5022452;28;20018;-60
2021/08/22 11:30:41;;;;;;;6.55;3.60;;;22.50;99.90;;;;;;5023094;28;20531;-60
2021/08/22 11:33:08;;;;;;;7.30;3.22;;;22.60;99.90;;;;;;5020440;28;20026;-61
2021/08/22 11:35:43;;;;;;;6.93;3.97;;;22.70;99.90;;;;;;5024652;28;20071;-61
2021/08/22 11:38:09;;;;;;;9.50;4.60;;;22.90;99.90;;;;;;5027695;28;20078;-60
2021/08/22 11:40:36;;;;;;;9.57;4.60;;;22.80;99.90;;;;;;5023439;28;20029;-59
2021/08/22 11:43:05;;;;;;;11.52;4.32;;;22.60;99.90;;;;;;5019440;28;20393;-60
2021/08/22 11:45:36;;;;;;;10.77;5.50;;;22.40;99.90;;;;;;5022090;28;20402;-61
2021/08/22 11:48:03;;;;;;;6.78;4.45;;;22.20;99.90;;;;;;5022314;28;20124;-61
2021/08/22 11:50:31;;;;;;;8.57;4.45;;;21.90;99.90;;;;;;5026712;28;20026;-59
2021/08/22 11:52:59;;;;;;;8.32;4.03;;;21.90;99.90;;;;;;5017364;28;20151;-60
2021/08/22 11:55:31;;;;;;;8.27;4.50;;;21.80;99.90;;;;;;5023203;28;20362;-58
2021/08/22 11:58:07;;;;;;;13.38;5.10;;;21.80;99.90;;;;;;5020190;28;20030;-58
2021/08/22 12:00:33;;;;;;;11.25;4.90;;;22.00;99.90;;;;;;5024429;28;20512;-60
2021/08/22 12:03:01;;;;;;;8.40;4.78;;;21.90;99.90;;;;;;5025452;28;20038;-61
2021/08/22 12:05:29;;;;;;;11.75;4.35;;;21.80;99.90;;;;;;5015971;28;21188;-61
2021/08/22 12:08:16;;;;;;;8.55;4.85;;;21.90;99.90;;;;;;5016914;28;20077;-61
2021/08/22 12:10:42;;;;;;;11.68;4.80;;;22.00;99.90;;;;;;5025136;28;20025;-59
2021/08/22 12:13:19;;;;;;;9.68;4.60;;;22.10;99.90;;;;;;5023132;28;20512;-62
2021/08/22 12:15:47;;;;;;;10.32;4.40;;;22.00;99.90;;;;;;5019305;28;20112;-62
2021/08/22 12:18:26;;;;;;;7.55;3.80;;;22.10;99.90;;;;;;5023145;28;20493;-60
2021/08/22 12:21:15;;;;;;;10.45;4.35;;;22.20;99.90;;;;;;5021276;28;20408;-62
2021/08/22 12:23:59;;;;;;;9.15;3.75;;;22.10;99.90;;;;;;5022657;28;20374;-61
2021/08/22 12:26:29;;;;;;;10.60;3.88;;;22.00;99.90;;;;;;5014032;28;20049;-61
2021/08/22 12:29:12;;;;;;;7.90;3.72;;;22.00;99.90;;;;;;5019106;28;20097;-59
2021/08/22 12:31:40;;;;;;;9.18;3.35;;;22.20;99.90;;;;;;5021458;28;20450;-59
2021/08/22 12:34:11;;;;;;;8.82;4.07;;;22.50;99.90;;;;;;5014268;28;20567;-62
2021/08/22 12:36:43;;;;;;;7.38;3.55;;;22.70;99.90;;;;;;5019775;28;20033;-60
2021/08/22 12:39:10;;;;;;;7.50;3.67;;;22.90;99.90;;;;;;5025447;28;20140;-60
2021/08/22 12:41:41;;;;;;;8.23;3.75;;;22.80;99.90;;;;;;5018386;28;20030;-60
2021/08/22 12:44:12;;;;;;;8.18;4.57;;;23.20;99.90;;;;;;5018944;28;20025;-62